Arthur, Iowa
Current Conditions -  °F | °C
As of 9:35 PM on Friday 19 Dec 2014 (Local Time) from KSLB Reporting Station
Haze Haze  
Wind Chill: 20°   Ceiling: 600
Heat Index: 30°   Visibility: 6mi
Dew Point: 28°   Wind: 13mph
Humidity: 93%   Direction: 170°S
Pressure: 30.12"   Gusts: NA
Location:  42.33°N, 95.35°W
Report Text: KSLB 200335Z AUTO 17011KT 6SM BR OVC006 M01/M02 A3012 RMK AO2
Loading
Personal Weather Stations






























Interactive Weather Map New forecast layout! Learn more

10-Day Weather Forecast

Advertisements
Track Severe Weather on mobile